DRZA

Mano Dayak International Airport

Agadez, Niger
METAR DRZA 151300Z VRB08KT CAVOK 32/05 Q1014
Observed Flight Rules
Nov-15 @ 13:00 UTC (28 minutes ago) Visual Flight Rules
Wind Visibility Clouds
Variable at 8 knots 10,000+ meters
  • Clear skies
Temperatures Readings
Current 32°C / 90°F
Dewpoint 5°C / 41°F
Humidity 18%
Altimeter 29.94" Hg
Pressure 1014 hPa
Elevation 502
METAR DRZA 151300Z VRB08KT CAVOK 32/05 Q1014
Observed Flight Rules
Nov-15 @ 13:00 UTC
(28 minutes ago)
VFR
Wind Visibility
Variable at 8 knots 10,000+ meters
Clouds
  • Clear skies
Temperature Dewpoint
32°C / 90°F 5°C / 41°F
Humidity Altimeter Pressure
18% 29.94" Hg 1014 hPa